Terminal Aerodrome Forecast
Issued by NWS

Home | Current Version | Previous Version | Text Only | Print | Product List | Glossary On
Versions: 1 2 3 4 5 6 7 8 9 10 11 12 13 14 15 16
000
FTUS45 KLKN 240019 RRA
TAFELY
TAF
KELY 240019Z 2400/2424 30013KT P6SM SCT050
     FM240200 VRB06KT P6SM SCT200
     FM241600 18010KT P6SM BKN200
     FM242100 18015G25KT P6SM BKN150=

USA.gov is the U.S. government's official web portal to all federal, state and local government web resources and services.